Time;durP1;ratioP1;P1;durP2;ratioP2;P2;SDS_P1;SDS_P2;PMS_P1;PMS_P2;Temp;Humidity;BMP_temperature;BMP_pressure;BME280_temperature;BME280_humidity;BME280_pressure;Samples;Min_cycle;Max_cycle;Signal;HPM_P1;HPM_P2
2021/08/28 00:00:06;;;;;;;6.07;3.97;;;;;;;9.87;98.83;96021.69;6215393;23;20004;-93
2021/08/28 00:02:31;;;;;;;5.20;3.45;;;;;;;9.71;97.10;96003.09;6215610;23;20088;-93
2021/08/28 00:04:57;;;;;;;5.15;4.65;;;;;;;9.94;98.60;96026.78;6215503;23;20028;-94
2021/08/28 00:07:22;;;;;;;8.35;5.60;;;;;;;9.91;98.52;96033.13;6215505;23;20008;-93
2021/08/28 00:09:48;;;;;;;6.65;5.65;;;;;;;9.76;98.15;96007.91;6215940;23;20000;-91
2021/08/28 00:12:13;;;;;;;8.93;5.85;;;;;;;9.77;97.49;96014.06;6215546;23;20012;-93
2021/08/28 00:14:39;;;;;;;7.30;5.60;;;;;;;9.74;97.72;96020.41;6215763;23;20008;-92
2021/08/28 00:17:04;;;;;;;8.88;5.72;;;;;;;9.77;97.96;96020.25;6215506;23;20066;-92
2021/08/28 00:19:30;;;;;;;7.53;5.65;;;;;;;9.89;98.37;96026.66;6215240;23;20015;-93
2021/08/28 00:21:56;;;;;;;7.22;5.45;;;;;;;9.80;97.34;96015.84;6217206;23;20009;-92
2021/08/28 00:24:21;;;;;;;8.85;6.53;;;;;;;9.72;98.48;96012.72;6217251;23;20158;-93
2021/08/28 00:26:47;;;;;;;10.43;7.03;;;;;;;9.85;97.92;96026.81;6217403;23;20005;-93
2021/08/28 00:29:12;;;;;;;8.20;6.57;;;;;;;9.77;98.08;96030.34;6217062;23;20016;-94
2021/08/28 00:31:38;;;;;;;5.63;4.80;;;;;;;9.66;98.77;96020.75;6217425;23;20060;-92
2021/08/28 00:34:03;;;;;;;5.15;4.32;;;;;;;9.74;98.86;96031.25;6217334;23;19996;-93
2021/08/28 00:36:29;;;;;;;4.43;3.83;;;;;;;9.81;98.39;96039.81;6217301;23;20008;-93
2021/08/28 00:38:54;;;;;;;3.63;3.33;;;;;;;9.84;98.87;96047.03;6217430;23;20034;-93
2021/08/28 00:41:20;;;;;;;6.03;4.30;;;;;;;9.63;97.58;96034.47;6217295;23;20001;-92
2021/08/28 00:43:45;;;;;;;4.90;4.25;;;;;;;9.70;97.96;96032.19;6217202;23;20001;-93
2021/08/28 00:46:11;;;;;;;4.20;3.80;;;;;;;9.58;97.87;96029.66;6218655;23;20004;-94
2021/08/28 00:48:54;;;;;;;4.10;3.70;;;;;;;9.59;98.09;96036.59;6217339;23;19996;-94
2021/08/28 00:51:20;;;;;;;4.70;4.30;;;;;;;9.57;99.13;96031.63;6217408;23;20040;-92
2021/08/28 00:53:47;;;;;;;6.07;4.75;;;;;;;9.62;99.72;96024.84;6217010;23;20009;-93
2021/08/28 00:56:12;;;;;;;9.30;6.20;;;;;;;9.74;98.96;96059.13;6217182;23;20016;-93
2021/08/28 00:58:38;;;;;;;6.43;5.68;;;;;;;9.65;99.46;96049.09;6217282;23;20036;-92
2021/08/28 01:01:10;;;;;;;5.97;5.20;;;;;;;9.59;98.65;96045.50;6217416;23;20084;-93
2021/08/28 01:03:35;;;;;;;4.22;3.83;;;;;;;9.54;98.11;96037.22;6217194;23;20008;-93
2021/08/28 01:06:18;;;;;;;3.40;3.10;;;;;;;9.48;95.67;96033.63;6216934;23;20067;-93
2021/08/28 01:08:56;;;;;;;6.38;3.47;;;;;;;9.64;97.36;96061.13;6217024;23;20374;-93
2021/08/28 01:11:34;;;;;;;3.17;2.70;;;;;;;9.49;96.15;96035.16;6217067;23;20007;-93
2021/08/28 01:14:14;;;;;;;5.10;2.90;;;;;;;9.54;96.60;96053.50;6216923;23;20015;-93
2021/08/28 01:16:49;;;;;;;4.53;2.90;;;;;;;9.55;97.55;96055.00;6217029;23;20008;-93
2021/08/28 01:19:42;;;;;;;2.72;2.53;;;;;;;9.59;97.48;96056.34;6216882;23;20007;-94
2021/08/28 01:22:10;;;;;;;3.55;3.13;;;;;;;9.55;98.73;96060.41;6216834;23;20008;-93
2021/08/28 01:24:41;;;;;;;3.90;2.67;;;;;;;9.55;97.25;96061.16;6216459;23;20066;-92
2021/08/28 01:27:15;;;;;;;4.20;3.47;;;;;;;9.55;96.15;96060.41;6216825;23;20036;-93
2021/08/28 01:29:41;;;;;;;3.30;2.78;;;;;;;9.26;96.13;96036.56;6217062;23;20372;-92
2021/08/28 01:32:08;;;;;;;6.45;2.67;;;;;;;9.48;97.04;96061.50;6216387;23;20044;-93
2021/08/28 01:34:34;;;;;;;5.13;2.80;;;;;;;9.24;96.30;96039.72;6216752;23;20030;-93
2021/08/28 01:37:02;;;;;;;3.42;2.72;;;;;;;9.29;96.47;96060.78;6216575;23;20000;-93
2021/08/28 01:39:29;;;;;;;3.05;2.75;;;;;;;9.35;98.11;96041.94;6216814;23;20302;-93
2021/08/28 01:41:59;;;;;;;3.92;3.00;;;;;;;9.38;96.33;96057.31;6217198;23;20016;-93
2021/08/28 01:44:24;;;;;;;3.87;3.30;;;;;;;9.19;96.54;96051.94;6216748;23;20004;-92
2021/08/28 01:46:51;;;;;;;4.43;3.45;;;;;;;9.27;98.26;96049.66;6216701;23;20009;-93
2021/08/28 01:49:17;;;;;;;3.45;3.05;;;;;;;9.20;96.79;96049.97;6216797;23;20051;-93
2021/08/28 01:51:45;;;;;;;3.28;2.92;;;;;;;9.24;96.33;96074.19;6217058;23;20722;-92
2021/08/28 01:54:11;;;;;;;4.05;3.40;;;;;;;9.30;97.35;96075.09;6216491;23;20012;-94
2021/08/28 01:56:37;;;;;;;3.53;3.22;;;;;;;9.19;97.21;96054.63;6216633;23;20654;-94
2021/08/28 01:59:03;;;;;;;4.78;3.67;;;;;;;9.28;97.50;96067.44;6216818;23;20009;-93
2021/08/28 02:01:28;;;;;;;4.82;4.30;;;;;;;9.13;97.26;96061.88;6216558;23;20011;-93
2021/08/28 02:03:54;;;;;;;4.28;3.88;;;;;;;9.12;97.72;96068.50;6216582;23;20036;-93
2021/08/28 02:06:38;;;;;;;5.50;4.05;;;;;;;9.06;98.08;96064.91;6216620;23;20039;-92
2021/08/28 02:09:26;;;;;;;3.28;2.97;;;;;;;9.08;97.34;96065.19;6216645;23;20000;-94
2021/08/28 02:12:01;;;;;;;3.20;2.90;;;;;;;9.09;97.19;96066.69;6216699;23;20005;-93
2021/08/28 02:14:38;;;;;;;3.28;2.97;;;;;;;9.17;98.69;96067.91;6216661;23;20004;-94
2021/08/28 02:17:08;;;;;;;2.80;2.60;;;;;;;9.13;98.79;96058.41;6216549;23;20007;-94
2021/08/28 02:19:39;;;;;;;2.75;2.55;;;;;;;9.10;95.83;96068.19;6216547;23;20329;-93
2021/08/28 02:22:19;;;;;;;2.83;2.50;;;;;;;9.06;96.69;96061.44;6216467;23;20055;-94
2021/08/28 02:24:50;;;;;;;3.20;2.90;;;;;;;9.05;96.44;96065.34;6216208;23;20452;-93
2021/08/28 02:27:36;;;;;;;2.50;2.30;;;;;;;9.07;97.16;96068.38;6216063;23;20009;-94
2021/08/28 02:30:06;;;;;;;2.60;2.40;;;;;;;9.03;97.47;96068.50;6216552;23;20000;-93
2021/08/28 02:32:33;;;;;;;3.67;2.90;;;;;;;8.91;96.85;96067.47;6216169;23;20469;-93
2021/08/28 02:35:00;;;;;;;2.80;2.47;;;;;;;8.91;97.08;96062.06;6216300;23;20008;-93
2021/08/28 02:37:27;;;;;;;2.88;2.67;;;;;;;8.98;97.82;96065.66;6216110;23;20032;-93
2021/08/28 02:39:54;;;;;;;3.17;2.22;;;;;;;8.91;97.41;96056.66;6216125;23;20000;-93
2021/08/28 02:42:20;;;;;;;2.60;2.40;;;;;;;8.96;96.94;96076.22;6216225;23;20134;-93
2021/08/28 02:44:48;;;;;;;2.60;2.10;;;;;;;8.90;97.63;96078.78;6215847;23;20441;-93
2021/08/28 02:47:16;;;;;;;3.95;2.60;;;;;;;8.89;96.95;96069.91;6216146;23;20011;-93
2021/08/28 02:49:43;;;;;;;2.70;2.50;;;;;;;8.91;96.36;96074.84;6216153;23;20035;-92
2021/08/28 02:52:11;;;;;;;2.80;2.20;;;;;;;8.85;97.05;96050.34;6215784;23;20005;-93
2021/08/28 02:54:40;;;;;;;2.67;2.47;;;;;;;8.82;97.83;96059.34;6216048;23;20005;-93
2021/08/28 02:57:07;;;;;;;2.72;2.40;;;;;;;8.82;96.78;96053.19;6215971;23;20422;-93
2021/08/28 02:59:34;;;;;;;2.88;2.67;;;;;;;8.99;98.78;96065.19;6215817;23;20005;-94
2021/08/28 03:02:01;;;;;;;4.30;3.90;;;;;;;8.95;96.21;96067.34;6215880;23;20004;-93
2021/08/28 03:04:28;;;;;;;5.20;3.70;;;;;;;8.84;96.98;96056.97;6216014;23;20031;-92
2021/08/28 03:06:54;;;;;;;4.22;3.80;;;;;;;8.81;96.87;96063.28;6215900;23;20008;-93
2021/08/28 03:09:19;;;;;;;4.03;3.60;;;;;;;8.96;97.49;96071.53;6215835;23;20015;-93
2021/08/28 03:11:45;;;;;;;4.00;3.30;;;;;;;8.96;97.06;96082.38;6215969;23;20039;-92
2021/08/28 03:14:12;;;;;;;2.38;2.17;;;;;;;8.67;95.96;96063.88;6215690;23;20012;-93
2021/08/28 03:16:41;;;;;;;3.75;2.95;;;;;;;8.89;98.37;96077.25;6215856;23;20048;-93
2021/08/28 03:19:09;;;;;;;3.55;2.65;;;;;;;8.74;96.32;96057.44;6215743;23;20068;-93
2021/08/28 03:21:38;;;;;;;3.40;2.88;;;;;;;8.81;97.03;96070.66;6215791;23;20008;-94
2021/08/28 03:24:06;;;;;;;2.85;2.55;;;;;;;8.75;98.46;96050.78;6215822;23;20068;-94
2021/08/28 03:26:32;;;;;;;4.07;3.58;;;;;;;8.72;97.43;96051.69;6215695;23;20005;-93
2021/08/28 03:28:59;;;;;;;3.50;3.20;;;;;;;8.89;97.37;96071.84;6215689;23;20095;-92
2021/08/28 03:31:25;;;;;;;3.60;3.10;;;;;;;8.76;96.07;96061.16;6216138;23;20008;-94
2021/08/28 03:33:58;;;;;;;3.55;3.03;;;;;;;8.70;97.19;96052.16;6215389;23;20489;-93
2021/08/28 03:36:25;;;;;;;3.40;3.05;;;;;;;8.83;97.19;96060.09;6215054;23;20005;-94
2021/08/28 03:38:50;;;;;;;3.72;3.42;;;;;;;8.86;98.29;96057.25;6214740;23;20086;-94
2021/08/28 03:41:17;;;;;;;6.22;4.85;;;;;;;8.88;97.84;96065.66;6214933;23;20388;-93
2021/08/28 03:43:44;;;;;;;7.90;4.00;;;;;;;8.77;96.49;96054.53;6215687;23;20333;-93
2021/08/28 03:46:10;;;;;;;4.60;3.70;;;;;;;8.78;97.18;96047.91;6215621;23;20091;-94
2021/08/28 03:48:45;;;;;;;4.50;4.10;;;;;;;8.69;95.94;96028.25;6215570;23;20012;-93
2021/08/28 03:51:10;;;;;;;4.13;3.50;;;;;;;8.78;96.92;96044.47;6215386;23;20051;-94
2021/08/28 03:53:36;;;;;;;3.47;3.17;;;;;;;8.79;97.41;96043.25;6215822;23;20004;-93
2021/08/28 03:56:02;;;;;;;3.08;2.80;;;;;;;8.82;98.14;96045.81;6215721;23;20154;-94
2021/08/28 03:58:28;;;;;;;3.38;2.80;;;;;;;8.92;97.64;96060.84;6215532;23;20314;-93
2021/08/28 04:00:54;;;;;;;3.20;2.90;;;;;;;8.85;98.05;96047.63;6215326;23;20009;-94
2021/08/28 04:03:20;;;;;;;3.50;2.78;;;;;;;8.97;96.90;96062.22;6215599;23;20058;-93
2021/08/28 04:05:45;;;;;;;3.13;2.80;;;;;;;8.89;97.90;96066.41;6215641;23;20016;-94
2021/08/28 04:08:11;;;;;;;2.78;2.53;;;;;;;8.84;97.24;96048.06;6215388;23;20011;-93
2021/08/28 04:10:37;;;;;;;5.30;2.67;;;;;;;8.71;96.49;96045.53;6215573;23;20084;-93
2021/08/28 04:13:03;;;;;;;2.83;2.45;;;;;;;8.79;97.53;96046.75;6215431;23;20055;-93
2021/08/28 04:15:28;;;;;;;3.08;2.75;;;;;;;8.55;97.03;96033.03;6215577;23;20011;-94
2021/08/28 04:17:55;;;;;;;3.38;2.70;;;;;;;8.59;97.64;96049.16;6215446;23;20507;-94
2021/08/28 04:20:20;;;;;;;3.35;3.05;;;;;;;8.76;97.65;96055.75;6215398;23;20012;-94
2021/08/28 04:22:46;;;;;;;5.25;2.83;;;;;;;8.62;97.88;96046.28;6215546;23;20023;-93
2021/08/28 04:25:12;;;;;;;4.15;2.50;;;;;;;8.72;97.36;96059.81;6215477;23;20012;-93
2021/08/28 04:27:38;;;;;;;2.88;2.58;;;;;;;8.78;98.23;96074.25;6215086;23;20020;-93
2021/08/28 04:30:06;;;;;;;2.50;2.30;;;;;;;8.80;98.13;96050.94;6215288;23;20005;-92
2021/08/28 04:32:31;;;;;;;2.85;2.55;;;;;;;8.72;97.85;96052.44;6215584;23;20001;-94
2021/08/28 04:34:57;;;;;;;3.95;2.58;;;;;;;8.83;96.51;96063.56;6215246;23;20015;-93
2021/08/28 04:37:23;;;;;;;3.10;2.80;;;;;;;9.00;98.47;96060.53;6215393;23;20426;-93
2021/08/28 04:39:49;;;;;;;2.40;2.20;;;;;;;8.89;96.00;96061.00;6215702;23;20047;-93
2021/08/28 04:42:14;;;;;;;3.25;2.22;;;;;;;8.82;95.63;96053.94;6215462;23;20345;-92
2021/08/28 04:44:40;;;;;;;2.33;2.13;;;;;;;8.91;97.38;96055.91;6215457;23;20009;-92
2021/08/28 04:47:05;;;;;;;2.97;2.17;;;;;;;8.89;97.07;96063.72;6215524;23;20108;-93
2021/08/28 04:49:31;;;;;;;4.90;2.50;;;;;;;8.91;96.85;96053.19;6214715;23;20008;-92
2021/08/28 04:51:58;;;;;;;3.47;3.17;;;;;;;8.87;97.86;96049.88;6215355;23;20005;-93
2021/08/28 04:54:24;;;;;;;3.60;2.92;;;;;;;8.91;97.04;96070.19;6215366;23;20004;-93
2021/08/28 04:56:49;;;;;;;3.05;2.75;;;;;;;8.96;98.47;96060.72;6215241;23;20310;-93
2021/08/28 04:59:15;;;;;;;3.00;2.63;;;;;;;8.97;97.01;96070.34;6215246;23;20146;-92
2021/08/28 05:01:41;;;;;;;3.75;3.35;;;;;;;8.96;97.55;96065.38;6215225;23;20001;-93
2021/08/28 05:04:07;;;;;;;4.05;3.30;;;;;;;8.91;96.49;96058.59;6215169;23;20004;-93
2021/08/28 05:06:32;;;;;;;5.47;3.15;;;;;;;8.94;97.19;96046.84;6215873;23;20111;-92
2021/08/28 05:08:58;;;;;;;3.75;3.20;;;;;;;9.12;97.89;96062.34;6217168;23;19997;-95
2021/08/28 05:11:24;;;;;;;4.82;3.47;;;;;;;9.06;97.16;96067.63;6216929;23;20008;-93
2021/08/28 05:13:49;;;;;;;3.35;3.05;;;;;;;8.98;96.55;96061.00;6217029;23;20005;-93
2021/08/28 05:16:15;;;;;;;4.13;2.85;;;;;;;9.00;96.15;96058.59;6217025;23;20009;-93
2021/08/28 05:18:40;;;;;;;5.85;2.83;;;;;;;8.99;96.12;96053.63;6216514;23;20004;-93
2021/08/28 05:21:06;;;;;;;3.42;3.00;;;;;;;9.17;97.38;96059.03;6216934;23;20000;-93
2021/08/28 05:23:31;;;;;;;5.32;3.05;;;;;;;9.19;96.51;96062.00;6216796;23;20079;-94
2021/08/28 05:25:57;;;;;;;3.88;3.47;;;;;;;9.25;97.93;96081.13;6216946;23;20005;-93
2021/08/28 05:28:23;;;;;;;4.20;3.35;;;;;;;9.06;98.23;96045.94;6217963;23;20024;-92
2021/08/28 05:30:49;;;;;;;3.83;3.40;;;;;;;9.14;97.02;96049.81;6216878;23;20071;-93
2021/08/28 05:33:15;;;;;;;3.92;3.53;;;;;;;9.26;96.80;96061.69;6216928;23;20015;-93
2021/08/28 05:35:41;;;;;;;3.92;3.55;;;;;;;9.26;96.54;96075.25;6216747;23;20087;-94
2021/08/28 05:38:07;;;;;;;5.43;4.20;;;;;;;9.17;96.92;96059.78;6216837;23;20020;-93
2021/08/28 05:40:33;;;;;;;5.05;4.55;;;;;;;9.32;97.02;96072.66;6216662;23;20338;-92
2021/08/28 05:42:59;;;;;;;4.75;4.35;;;;;;;9.30;96.69;96069.66;6216813;23;20430;-93
2021/08/28 05:45:24;;;;;;;5.55;4.10;;;;;;;9.27;97.59;96065.94;6216764;23;20100;-93
2021/08/28 05:47:50;;;;;;;4.45;3.45;;;;;;;9.35;97.00;96080.66;6216405;23;20005;-93
2021/08/28 05:50:17;;;;;;;4.53;3.50;;;;;;;9.47;98.37;96080.91;6216610;23;20015;-92
2021/08/28 05:52:43;;;;;;;4.25;2.95;;;;;;;9.31;97.16;96050.22;6216671;23;20004;-93
2021/08/28 05:55:14;;;;;;;3.10;2.80;;;;;;;9.50;96.94;96075.34;6216521;23;20019;-93
2021/08/28 05:57:42;;;;;;;;;;;;;;;9.42;95.66;96077.59;6217493;23;20091;-92
2021/08/28 06:00:09;;;;;;;3.90;3.50;;;;;;;9.38;96.26;96060.78;6216393;23;19914;-92
2021/08/28 06:02:39;;;;;;;4.57;3.05;;;;;;;9.29;95.44;96066.22;6216745;23;20015;-94
2021/08/28 06:05:12;;;;;;;3.60;3.10;;;;;;;9.34;95.87;96064.84;6216349;23;20063;-92
2021/08/28 06:07:38;;;;;;;4.45;3.53;;;;;;;9.45;95.73;96073.25;6216390;23;20005;-94
2021/08/28 06:10:06;;;;;;;3.80;3.50;;;;;;;9.56;95.02;96084.34;6216397;23;20000;-93
2021/08/28 06:12:33;;;;;;;4.80;4.22;;;;;;;9.57;95.71;96079.69;6217885;23;20004;-93
2021/08/28 06:14:58;;;;;;;7.05;3.65;;;;;;;9.43;95.89;96057.44;6217817;23;20004;-93
2021/08/28 06:17:24;;;;;;;5.60;3.72;;;;;;;9.52;97.38;96053.94;6216540;23;20083;-92
2021/08/28 06:19:49;;;;;;;5.20;3.60;;;;;;;9.72;96.68;96085.94;6216373;23;20062;-92
2021/08/28 06:22:15;;;;;;;7.63;3.80;;;;;;;9.68;94.55;96080.69;6216251;23;20086;-92
2021/08/28 06:24:41;;;;;;;4.90;3.90;;;;;;;9.56;94.85;96072.75;6216276;23;20421;-93
2021/08/28 06:27:08;;;;;;;4.03;3.63;;;;;;;9.56;95.50;96072.75;6216182;23;20005;-93
2021/08/28 06:29:34;;;;;;;4.60;4.10;;;;;;;9.78;96.49;96083.38;6216189;23;20068;-92
2021/08/28 06:32:00;;;;;;;5.72;4.07;;;;;;;9.75;95.64;96068.00;6216272;23;20014;-92
2021/08/28 06:34:25;;;;;;;5.30;4.35;;;;;;;9.76;96.74;96061.41;6216247;23;20083;-93
2021/08/28 06:36:51;;;;;;;4.28;3.88;;;;;;;9.79;96.31;96065.88;6216126;23;20055;-93
2021/08/28 06:39:17;;;;;;;4.88;4.32;;;;;;;9.81;96.36;96069.66;6216164;23;20080;-92
2021/08/28 06:41:42;;;;;;;5.43;4.45;;;;;;;9.83;94.94;96075.34;6216178;23;20004;-92
2021/08/28 06:44:08;;;;;;;4.82;4.43;;;;;;;9.94;96.54;96074.84;6216100;23;20001;-93
2021/08/28 06:46:34;;;;;;;8.75;4.75;;;;;;;9.99;95.90;96079.66;6216122;23;20004;-92
2021/08/28 06:48:59;;;;;;;5.35;4.80;;;;;;;10.02;95.17;96081.47;6216078;23;20000;-92
2021/08/28 06:51:25;;;;;;;4.18;3.78;;;;;;;10.00;94.59;96073.00;6216017;23;20013;-91
2021/08/28 06:53:51;;;;;;;4.72;4.32;;;;;;;9.85;92.83;96064.03;6216126;23;20005;-93
2021/08/28 06:56:17;;;;;;;5.18;4.45;;;;;;;10.05;96.82;96093.34;6216128;23;20010;-92
2021/08/28 06:58:43;;;;;;;5.82;4.32;;;;;;;10.04;93.81;96086.41;6215872;23;20008;-92
2021/08/28 07:01:09;;;;;;;5.38;4.88;;;;;;;9.89;91.05;96072.78;6215980;23;20009;-92
2021/08/28 07:03:34;;;;;;;6.05;5.07;;;;;;;9.96;94.91;96059.63;6215954;23;20074;-92
2021/08/28 07:06:00;;;;;;;5.43;4.93;;;;;;;10.09;94.16;96070.25;6216159;23;20011;-93
2021/08/28 07:08:26;;;;;;;5.50;4.97;;;;;;;10.11;92.67;96072.50;6215798;23;20016;-92
2021/08/28 07:10:52;;;;;;;50.72;38.40;;;;;;;10.20;93.66;96075.16;6216053;23;20333;-92
2021/08/28 07:13:18;;;;;;;6.45;5.30;;;;;;;10.26;94.53;96067.19;6215811;23;20015;-94
2021/08/28 07:15:44;;;;;;;5.20;4.60;;;;;;;10.32;92.53;96078.91;6215904;23;20079;-92
2021/08/28 07:18:11;;;;;;;7.07;5.07;;;;;;;10.25;93.77;96065.69;6216064;23;20039;-93
2021/08/28 07:20:38;;;;;;;5.68;4.32;;;;;;;10.21;91.64;96055.72;6215648;23;20015;-92
2021/08/28 07:23:03;;;;;;;6.03;4.70;;;;;;;10.28;93.64;96073.66;6215852;23;20004;-92
2021/08/28 07:25:29;;;;;;;6.45;4.68;;;;;;;10.49;94.76;96074.56;6215873;23;20337;-92
2021/08/28 07:27:55;;;;;;;6.97;4.40;;;;;;;10.55;93.36;96072.72;6215642;23;20020;-93
2021/08/28 07:30:21;;;;;;;6.45;4.90;;;;;;;10.66;92.05;96083.06;6215394;23;20004;-93
2021/08/28 07:32:47;;;;;;;5.40;4.88;;;;;;;10.56;91.77;96073.47;6215839;23;20337;-93
2021/08/28 07:35:12;;;;;;;5.70;5.05;;;;;;;10.70;92.08;96076.22;6215676;23;20004;-93
2021/08/28 07:37:38;;;;;;;5.57;4.95;;;;;;;10.77;91.95;96071.66;6215753;23;20006;-92
2021/08/28 07:40:05;;;;;;;6.05;5.40;;;;;;;10.73;90.53;96088.88;6215469;23;20083;-91
2021/08/28 07:42:31;;;;;;;5.85;5.10;;;;;;;10.60;89.87;96080.22;6215542;23;20011;-92
2021/08/28 07:44:57;;;;;;;6.50;5.28;;;;;;;10.60;92.31;96090.31;6215913;23;20087;-93
2021/08/28 07:47:22;;;;;;;5.72;5.13;;;;;;;10.65;92.14;96090.44;6215680;23;20019;-92
2021/08/28 07:49:48;;;;;;;6.78;5.10;;;;;;;10.63;91.87;96092.13;6215666;23;20001;-93
2021/08/28 07:52:17;;;;;;;5.53;4.93;;;;;;;10.66;91.29;96080.34;6215534;23;20012;-92
2021/08/28 07:54:45;;;;;;;5.97;5.18;;;;;;;10.69;90.45;96088.28;6215600;23;20011;-92
2021/08/28 07:57:10;;;;;;;6.38;5.35;;;;;;;10.69;90.90;96077.44;6215505;23;20039;-92
2021/08/28 07:59:36;;;;;;;5.18;4.65;;;;;;;10.57;88.80;96081.16;6215199;23;20001;-93
2021/08/28 08:02:02;;;;;;;5.80;5.10;;;;;;;10.61;89.65;96070.88;6215481;23;20100;-92
2021/08/28 08:04:27;;;;;;;6.22;5.38;;;;;;;10.75;89.29;96078.28;6215444;23;20005;-93
2021/08/28 08:06:53;;;;;;;6.53;5.57;;;;;;;10.71;89.00;96064.16;6215381;23;20008;-93
2021/08/28 08:09:19;;;;;;;7.57;6.32;;;;;;;10.70;88.28;96078.91;6215533;23;20004;-92
2021/08/28 08:11:44;;;;;;;6.40;5.60;;;;;;;10.88;89.16;96072.59;6215316;23;20009;-92
2021/08/28 08:14:10;;;;;;;6.10;5.50;;;;;;;11.13;89.86;96078.72;6215272;23;20004;-92
2021/08/28 08:16:36;;;;;;;6.68;6.05;;;;;;;11.26;90.19;96079.94;6215440;23;20333;-93
2021/08/28 08:19:01;;;;;;;6.50;5.65;;;;;;;11.28;90.14;96066.63;6215361;23;20005;-92
2021/08/28 08:21:27;;;;;;;6.57;5.72;;;;;;;11.12;87.83;96061.66;6215264;23;20421;-91
2021/08/28 08:23:52;;;;;;;7.80;6.05;;;;;;;11.36;90.31;96086.06;6216913;23;20039;-91
2021/08/28 08:26:19;;;;;;;9.73;6.05;;;;;;;11.41;89.17;96077.25;6215477;23;20015;-91
2021/08/28 08:28:45;;;;;;;7.10;6.32;;;;;;;11.38;90.83;96052.94;6215251;23;20434;-92
2021/08/28 08:31:11;;;;;;;8.40;6.90;;;;;;;11.54;89.34;96061.38;6215161;23;20016;-93
2021/08/28 08:33:38;;;;;;;40.83;29.65;;;;;;;11.70;90.24;96065.56;6215424;23;20032;-91
2021/08/28 08:36:05;;;;;;;7.45;6.63;;;;;;;11.62;87.54;96067.19;6215107;23;20018;-91
2021/08/28 08:38:31;;;;;;;6.82;6.13;;;;;;;11.60;85.94;96068.88;6215387;23;20005;-92
2021/08/28 08:40:58;;;;;;;6.45;5.85;;;;;;;11.36;85.73;96061.59;6215411;23;20384;-92
2021/08/28 08:43:24;;;;;;;6.65;6.05;;;;;;;11.58;87.57;96082.19;6217278;23;20349;-92
2021/08/28 08:45:50;;;;;;;7.38;6.72;;;;;;;11.57;87.02;96077.97;6217201;23;20009;-92
2021/08/28 08:48:17;;;;;;;9.98;6.55;;;;;;;11.85;87.55;96081.16;6217395;23;20055;-91
2021/08/28 08:50:45;;;;;;;7.75;6.95;;;;;;;11.95;87.50;96088.72;6217090;23;20358;-91
2021/08/28 08:53:14;;;;;;;7.78;7.03;;;;;;;11.85;85.76;96046.53;6217134;23;20011;-91
2021/08/28 08:55:40;;;;;;;8.90;7.60;;;;;;;11.89;88.27;96071.56;6216981;23;20004;-91
2021/08/28 08:58:06;;;;;;;7.75;6.97;;;;;;;11.80;85.68;96028.88;6217065;23;20433;-91
2021/08/28 09:00:31;;;;;;;8.27;6.85;;;;;;;12.27;86.25;96069.88;6217014;23;20373;-92
2021/08/28 09:02:57;;;;;;;7.32;6.63;;;;;;;12.24;85.92;96051.75;6217207;23;20004;-92
2021/08/28 09:05:23;;;;;;;8.40;7.20;;;;;;;12.48;84.64;96070.63;6216936;23;20008;-91
2021/08/28 09:07:48;;;;;;;9.48;6.85;;;;;;;12.47;83.11;96060.97;6217119;23;20011;-91
2021/08/28 09:10:14;;;;;;;8.50;6.78;;;;;;;12.47;83.11;96060.97;6217162;23;20500;-93
2021/08/28 09:12:43;;;;;;;6.97;6.28;;;;;;;12.47;83.11;96060.97;6217195;23;20337;-91
2021/08/28 09:15:14;;;;;;;7.60;6.47;;;;;;;12.47;83.11;96060.97;6216938;23;20039;-90
2021/08/28 09:17:42;;;;;;;7.55;6.85;;;;;;;12.98;78.71;96063.00;6216744;23;20005;-91
2021/08/28 09:20:23;;;;;;;7.80;7.10;;;;;;;12.88;80.40;96052.75;6216761;23;20444;-90
2021/08/28 09:22:50;;;;;;;8.45;6.40;;;;;;;12.88;80.40;96052.75;6216814;23;20008;-90
2021/08/28 09:25:24;;;;;;;7.13;6.40;;;;;;;13.17;83.76;96062.72;6216706;23;20008;-91
2021/08/28 09:27:50;;;;;;;8.07;7.28;;;;;;;13.17;83.76;96062.72;6218259;23;20016;-92
2021/08/28 09:30:30;;;;;;;8.07;7.20;;;;;;;13.35;82.48;96052.22;6216758;23;20068;-90
2021/08/28 09:33:01;;;;;;;7.60;6.80;;;;;;;13.35;82.48;96052.22;6216672;23;20012;-89
2021/08/28 09:35:29;;;;;;;8.50;7.70;;;;;;;13.35;82.48;96052.22;6216358;23;20008;-90
2021/08/28 09:38:01;;;;;;;7.97;6.72;;;;;;;13.35;82.48;96052.22;6216801;23;20754;-89
2021/08/28 09:40:30;;;;;;;6.93;6.15;;;;;;;12.84;80.87;96033.91;6216587;23;20011;-90
2021/08/28 09:43:07;;;;;;;7.07;6.43;;;;;;;12.84;80.87;96033.91;6216620;23;20140;-90
2021/08/28 09:45:37;;;;;;;6.47;5.88;;;;;;;12.84;80.87;96033.91;6216556;23;20318;-90
2021/08/28 09:48:06;;;;;;;7.57;6.22;;;;;;;12.91;81.88;96038.91;6216521;23;20349;-91
2021/08/28 09:50:35;;;;;;;6.65;6.05;;;;;;;12.91;81.88;96038.91;6216921;23;20011;-91
2021/08/28 09:53:06;;;;;;;6.88;6.28;;;;;;;12.91;81.88;96038.91;6216321;23;20004;-92
2021/08/28 09:55:34;;;;;;;6.70;6.10;;;;;;;12.91;81.88;96038.91;6216596;23;20009;-91
2021/08/28 09:58:00;;;;;;;6.32;5.72;;;;;;;12.91;81.88;96038.91;6216436;23;20047;-90
2021/08/28 10:00:28;;;;;;;6.47;5.85;;;;;;;12.91;81.88;96038.91;6216556;23;20004;-91
2021/08/28 10:03:06;;;;;;;6.03;5.43;;;;;;;13.02;85.23;96027.38;6216461;23;20062;-90
2021/08/28 10:05:35;;;;;;;7.35;5.47;;;;;;;13.02;85.23;96027.38;6216454;23;20012;-90
2021/08/28 10:08:05;;;;;;;6.47;5.88;;;;;;;13.02;85.23;96027.38;6216127;23;20626;-91
2021/08/28 10:10:34;;;;;;;6.20;5.60;;;;;;;13.08;84.94;96020.72;6215374;23;20004;-91
2021/08/28 10:13:02;;;;;;;7.30;5.50;;;;;;;13.08;84.94;96020.72;6215342;23;20066;-90
2021/08/28 10:15:30;;;;;;;6.40;5.40;;;;;;;13.08;84.94;96020.72;6214681;23;20005;-91
2021/08/28 10:17:58;;;;;;;5.85;5.25;;;;;;;13.08;84.94;96020.72;6214571;23;20036;-91
2021/08/28 10:20:26;;;;;;;5.93;4.65;;;;;;;13.08;84.94;96020.72;6215886;23;20015;-91
2021/08/28 10:22:55;;;;;;;5.20;4.70;;;;;;;13.08;84.94;96020.72;6216221;23;20012;-90
2021/08/28 10:25:23;;;;;;;5.18;4.68;;;;;;;13.40;100.00;68426.72;6216278;23;20005;-92
2021/08/28 10:27:50;;;;;;;5.72;4.38;;;;;;;13.40;82.16;96020.78;6215904;23;20017;-90
2021/08/28 10:30:18;;;;;;;5.10;4.68;;;;;;;13.40;82.16;96020.78;6216100;23;20042;-90
2021/08/28 10:32:44;;;;;;;6.38;4.68;;;;;;;13.40;82.16;96020.78;6216112;23;20365;-91
2021/08/28 10:35:11;;;;;;;5.70;4.80;;;;;;;13.43;85.44;96000.00;6216018;23;20448;-90
2021/08/28 10:37:37;;;;;;;6.22;4.50;;;;;;;13.58;85.50;96022.41;6216122;23;20012;-90
2021/08/28 10:40:31;;;;;;;4.45;4.05;;;;;;;13.58;85.50;96022.41;6215831;23;20008;-92
2021/08/28 10:43:03;;;;;;;5.50;4.40;;;;;;;13.72;100.00;88231.22;6201803;23;20014;-91
2021/08/28 10:45:32;;;;;;;7.68;4.70;;;;;;;13.72;85.78;96018.78;6216052;23;20008;-90
2021/08/28 10:48:00;;;;;;;4.95;4.32;;;;;;;13.72;85.78;96018.78;6216061;23;20688;-91
2021/08/28 10:50:30;;;;;;;6.10;5.50;;;;;;;13.76;85.32;96022.03;6215989;23;20088;-91
2021/08/28 10:52:58;;;;;;;6.00;5.40;;;;;;;13.76;85.32;96022.03;6216105;23;20322;-90
2021/08/28 10:55:38;;;;;;;6.15;5.50;;;;;;;13.76;85.32;96022.03;6215883;23;20333;-90
2021/08/28 10:58:14;;;;;;;5.78;5.13;;;;;;;14.29;84.44;96019.84;6215668;23;20459;-90
2021/08/28 11:00:55;;;;;;;5.85;4.55;;;;;;;14.29;84.44;96019.84;6215742;23;20111;-90
2021/08/28 11:03:35;;;;;;;5.60;4.75;;;;;;;14.82;81.05;96021.06;6215549;23;20083;-89
2021/08/28 11:06:15;;;;;;;5.47;4.53;;;;;;;14.82;80.95;96027.25;6215800;23;20008;-91
2021/08/28 11:08:46;;;;;;;4.60;4.20;;;;;;;14.82;80.95;96027.25;6215929;23;20047;-89
2021/08/28 11:11:24;;;;;;;4.97;4.55;;;;;;;14.82;80.95;96027.25;6215809;23;20004;-90
2021/08/28 11:13:58;;;;;;;4.55;3.97;;;;;;;14.82;80.95;96027.25;6215803;23;20046;-90
2021/08/28 11:16:42;;;;;;;4.47;4.07;;;;;;;15.01;76.60;96010.38;6215766;23;20004;-91
2021/08/28 11:19:09;;;;;;;7.20;4.45;;;;;;;15.01;76.60;96010.38;6215591;23;20087;-90
2021/08/28 11:21:49;;;;;;;5.00;4.50;;;;;;;15.03;80.48;96005.94;6215768;23;20039;-91
2021/08/28 11:24:23;;;;;;;4.20;3.80;;;;;;;15.03;80.48;96005.94;6215663;23;20004;-90
2021/08/28 11:26:50;;;;;;;4.72;3.92;;;;;;;15.03;80.48;96005.94;6217131;23;20047;-90
2021/08/28 11:29:46;;;;;;;3.97;3.47;;;;;;;15.03;80.48;96005.94;6215690;23;20453;-90
2021/08/28 11:32:17;;;;;;;4.47;3.97;;;;;;;15.56;77.10;95998.00;6189919;23;20019;-91
2021/08/28 11:34:49;;;;;;;4.47;4.00;;;;;;;15.67;74.72;96004.22;6215593;23;20030;-91
2021/08/28 11:37:27;;;;;;;4.45;3.95;;;;;;;15.67;74.72;96004.22;6215688;23;20040;-90
2021/08/28 11:39:57;;;;;;;5.05;3.40;;;;;;;15.70;76.30;95975.09;6215331;23;20456;-91
2021/08/28 11:42:22;;;;;;;4.43;3.28;;;;;;;15.70;76.30;95975.09;6215523;23;20008;-90